createdAt,value
2018-04-10T21:58:00.054Z,10.08
2018-04-10T21:58:00.134Z,7.41
2018-04-10T21:58:00.147Z,8.85
2018-04-10T21:58:00.332Z,5.43
2018-04-10T21:58:00.353Z,6.11
2018-04-10T21:58:00.416Z,6.08
2018-04-10T21:58:00.501Z,7.28
2018-04-10T21:58:00.543Z,5.45
2018-04-10T21:58:00.632Z,5.4
2018-04-10T21:58:00.735Z,6.5
2018-04-10T21:58:00.755Z,7.22
2018-04-10T21:58:00.834Z,9.85
2018-04-10T21:58:00.918Z,11.09
2018-04-10T21:58:01.004Z,10.73
2018-04-10T21:58:01.076Z,6.8
2018-04-10T21:58:01.161Z,5.66
2018-04-10T21:58:01.255Z,7.46
2018-04-10T21:58:01.332Z,5.83
2018-04-10T21:58:01.403Z,5.42
2018-04-10T21:58:01.474Z,11.37
2018-04-10T21:58:01.478Z,10.47
2018-04-10T21:58:01.590Z,9.05
2018-04-10T21:58:01.594Z,7.46
2018-04-10T21:58:01.689Z,6.39
2018-04-10T21:58:01.760Z,9.71
2018-04-10T21:58:01.788Z,9.98
2018-04-10T21:58:01.891Z,8.49
2018-04-10T21:58:01.954Z,6.46
2018-04-10T21:58:02.115Z,7.77
2018-04-10T21:58:02.136Z,5.77
2018-04-10T21:58:02.209Z,7.97
2018-04-10T21:58:02.278Z,5.17
2018-04-10T21:58:02.298Z,5.96
2018-04-10T21:58:02.427Z,6.84
2018-04-10T21:58:02.456Z,4.55
2018-04-10T21:58:02.521Z,4.76
2018-04-10T21:58:02.598Z,4.52
2018-04-10T21:58:02.688Z,4.32
2018-04-10T21:58:02.758Z,3.81
2018-04-10T21:58:02.845Z,8.46
2018-04-10T21:58:02.867Z,14.79
2018-04-10T21:58:03.014Z,2.49
2018-04-10T21:58:03.020Z,4.24
2018-04-10T21:58:03.049Z,3.25
2018-04-10T21:58:03.204Z,3.93
2018-04-10T21:58:03.215Z,3.93
2018-04-10T21:58:03.303Z,4.08
2018-04-10T21:58:03.403Z,3.94
2018-04-10T21:58:03.471Z,3.84
2018-04-10T21:58:03.562Z,3.5
2018-04-10T21:58:03.567Z,3.98
2018-04-10T21:58:03.643Z,3.56
2018-04-10T21:58:03.785Z,3.67
2018-04-10T21:58:03.796Z,4.04
2018-04-10T21:58:03.816Z,4.27
2018-04-10T21:58:03.957Z,4.44
2018-04-10T21:58:04.030Z,4.95
2018-04-10T21:58:04.112Z,3.62
2018-04-10T21:58:04.141Z,4.31
2018-04-10T21:58:04.208Z,4.69
2018-04-10T21:58:04.359Z,2.62
2018-04-10T21:58:04.359Z,5.01
2018-04-10T21:58:04.454Z,5.46
2018-04-10T21:58:04.611Z,2.61
2018-04-10T21:58:04.693Z,2.63
2018-04-10T21:58:04.711Z,4.08
2018-04-10T21:58:04.827Z,3.43
2018-04-10T21:58:04.924Z,4.27
2018-04-10T21:58:05.016Z,5.47
2018-04-10T21:58:05.046Z,4.82
2018-04-10T21:58:05.046Z,4.05
2018-04-10T21:58:05.195Z,3.74
2018-04-10T21:58:05.223Z,4.14
2018-04-10T21:58:05.299Z,5.09
2018-04-10T21:58:05.376Z,4.61
2018-04-10T21:58:05.443Z,3.13
2018-04-10T21:58:05.510Z,3.94
2018-04-10T21:58:05.621Z,4.63
2018-04-10T21:58:05.731Z,3.65
2018-04-10T21:58:05.780Z,4.74
2018-04-10T21:58:05.883Z,3.72
2018-04-10T21:58:05.949Z,3
2018-04-10T21:58:06.022Z,3.74
2018-04-10T21:58:06.100Z,3.59
2018-04-10T21:58:06.170Z,3.17
2018-04-10T21:58:06.170Z,3.37
2018-04-10T21:58:06.310Z,3.31
2018-04-10T21:58:06.317Z,4.42
2018-04-10T21:58:06.401Z,3.47
2018-04-10T21:58:06.532Z,3.1
2018-04-10T21:58:06.551Z,4.67
2018-04-10T21:58:06.687Z,3.86
2018-04-10T21:58:06.703Z,3.4
2018-04-10T21:58:06.779Z,3.61
2018-04-10T21:58:06.785Z,4.44
2018-04-10T21:58:06.947Z,4.08
2018-04-10T21:58:07.015Z,4.56
2018-04-10T21:58:07.089Z,5
2018-04-10T21:58:07.095Z,2.78
2018-04-10T21:58:07.193Z,3.52
2018-04-10T21:58:07.350Z,4.35
2018-04-10T21:58:07.434Z,3.25
2018-04-10T21:58:07.454Z,4.52
2018-04-10T21:58:07.518Z,4.62
2018-04-10T21:58:07.651Z,4.37
2018-04-10T21:58:07.675Z,5.15
2018-04-10T21:58:07.684Z,4.92
2018-04-10T21:58:07.810Z,5.59
2018-04-10T21:58:07.875Z,5.28
2018-04-10T21:58:07.948Z,3.7
2018-04-10T21:58:08.020Z,3.46
2018-04-10T21:58:08.097Z,5
2018-04-10T21:58:08.248Z,5.5
2018-04-10T21:58:08.322Z,5.4
2018-04-10T21:58:08.322Z,5.08
2018-04-10T21:58:08.420Z,4.78
2018-04-10T21:58:08.486Z,6.5
2018-04-10T21:58:08.508Z,5.34
2018-04-10T21:58:08.568Z,5.11
2018-04-10T21:58:08.706Z,6.81
2018-04-10T21:58:08.729Z,4.55
2018-04-10T21:58:08.805Z,4.9
2018-04-10T21:58:08.856Z,4.57
2018-04-10T21:58:08.989Z,6.33
2018-04-10T21:58:09.053Z,4.81
2018-04-10T21:58:09.053Z,5.34
2018-04-10T21:58:09.229Z,4.77
2018-04-10T21:58:09.229Z,3.38
2018-04-10T21:58:09.350Z,4.09
2018-04-10T21:58:09.414Z,3.93
2018-04-10T21:58:09.429Z,4.99
2018-04-10T21:58:09.449Z,3.98
2018-04-10T21:58:09.561Z,5.64
2018-04-10T21:58:09.596Z,5.03
2018-04-10T21:58:09.710Z,4.64
2018-04-10T21:58:09.749Z,4.68
2018-04-10T21:58:09.832Z,4.88
2018-04-10T21:58:09.920Z,7.22
2018-04-10T21:58:09.995Z,7.13
2018-04-10T21:58:10.059Z,5.96
2018-04-10T21:58:10.107Z,6.87
2018-04-10T21:58:10.146Z,5.31
2018-04-10T21:58:10.244Z,6.49
2018-04-10T21:58:10.267Z,5.99
2018-04-10T21:58:10.351Z,7.05
2018-04-10T21:58:10.447Z,6.01
2018-04-10T21:58:10.544Z,6.63
2018-04-10T21:58:10.644Z,4.57
2018-04-10T21:58:10.664Z,4.88
2018-04-10T21:58:10.716Z,5.6
2018-04-10T21:58:10.824Z,6.16
2018-04-10T21:58:11.003Z,5.62
2018-04-10T21:58:11.104Z,4.53
2018-04-10T21:58:11.156Z,5.72
2018-04-10T21:58:11.208Z,6.2
2018-04-10T21:58:11.315Z,6.67
2018-04-10T21:58:11.389Z,5.14
2018-04-10T21:58:11.488Z,7.35
2018-04-10T21:58:11.570Z,5.43
2018-04-10T21:58:11.578Z,6.34
2018-04-10T21:58:11.690Z,5.72
2018-04-10T21:58:11.704Z,5.85
2018-04-10T21:58:11.766Z,7.05
2018-04-10T21:58:11.839Z,6.33
2018-04-10T21:58:11.903Z,6.38
2018-04-10T21:58:11.980Z,6.04
2018-04-10T21:58:12.043Z,8.06
2018-04-10T21:58:12.161Z,6.92
2018-04-10T21:58:12.266Z,7.72
2018-04-10T21:58:12.294Z,9.55
2018-04-10T21:58:12.367Z,10.29
2018-04-10T21:58:12.508Z,10
2018-04-10T21:58:12.526Z,9.28
2018-04-10T21:58:12.615Z,10.02
2018-04-10T21:58:12.628Z,8.69
2018-04-10T21:58:12.692Z,8.88
2018-04-10T21:58:12.793Z,8.95
2018-04-10T21:58:12.847Z,11.71
2018-04-10T21:58:12.954Z,9.65
2018-04-10T21:58:13.027Z,8.82
2018-04-10T21:58:13.078Z,6.39
2018-04-10T21:58:13.109Z,8.72
2018-04-10T21:58:13.217Z,7.9
2018-04-10T21:58:13.299Z,8.98
2018-04-10T21:58:13.396Z,10.55
2018-04-10T21:58:13.433Z,10.03
2018-04-10T21:58:13.469Z,12.97
2018-04-10T21:58:13.527Z,13.36
2018-04-10T21:58:13.604Z,12.42
2018-04-10T21:58:13.655Z,10.53
2018-04-10T21:58:13.785Z,12.61
2018-04-10T21:58:13.817Z,18.7
2018-04-10T21:58:13.917Z,11.87
2018-04-10T21:58:13.961Z,13.85
2018-04-10T21:58:14.014Z,13.95
2018-04-10T21:58:14.127Z,14.31
2018-04-10T21:58:14.183Z,11.16
2018-04-10T21:58:14.235Z,11.63
2018-04-10T21:58:14.320Z,9.95
2018-04-10T21:58:14.411Z,11.72
2018-04-10T21:58:14.512Z,12.33
2018-04-10T21:58:14.615Z,9.5
2018-04-10T21:58:14.624Z,12.2
2018-04-10T21:58:14.728Z,11.91
2018-04-10T21:58:14.774Z,13.22
2018-04-10T21:58:14.802Z,12.72
2018-04-10T21:58:14.960Z,13.86
2018-04-10T21:58:14.969Z,10.12
2018-04-10T21:58:15.033Z,11.1
2018-04-10T21:58:15.137Z,11.55
2018-04-10T21:58:15.178Z,11.19
2018-04-10T21:58:15.257Z,19.74
2018-04-10T21:58:15.310Z,24.29
2018-04-10T21:58:15.410Z,9.97
2018-04-10T21:58:15.448Z,11.06
2018-04-10T21:58:15.529Z,7.75
2018-04-10T21:58:15.611Z,11.21
2018-04-10T21:58:15.672Z,10.48
2018-04-10T21:58:15.741Z,9.81
2018-04-10T21:58:15.776Z,9.24
2018-04-10T21:58:15.811Z,9.76
2018-04-10T21:58:15.931Z,11.1
2018-04-10T21:58:15.994Z,8.92
2018-04-10T21:58:16.087Z,9.02
2018-04-10T21:58:16.110Z,9.53
2018-04-10T21:58:16.191Z,8.57
2018-04-10T21:58:16.250Z,9.55
2018-04-10T21:58:16.363Z,9.52
2018-04-10T21:58:16.449Z,10.18
2018-04-10T21:58:16.496Z,11.66
2018-04-10T21:58:16.545Z,9.79
2018-04-10T21:58:16.600Z,6.45
2018-04-10T21:58:16.663Z,8.18
2018-04-10T21:58:16.744Z,9.36
2018-04-10T21:58:16.846Z,8.09
2018-04-10T21:58:16.875Z,8.37
2018-04-10T21:58:16.973Z,9.16
2018-04-10T21:58:17.068Z,11.13
2018-04-10T21:58:17.159Z,9.1
2018-04-10T21:58:17.209Z,8.75
2018-04-10T21:58:17.275Z,8.08
2018-04-10T21:58:17.326Z,8.21
2018-04-10T21:58:17.376Z,7.64
2018-04-10T21:58:17.495Z,9.95
2018-04-10T21:58:17.522Z,7.69
2018-04-10T21:58:17.590Z,9.86
2018-04-10T21:58:17.660Z,8.23
2018-04-10T21:58:17.784Z,8.71
2018-04-10T21:58:17.851Z,9.35
2018-04-10T21:58:17.967Z,10.13
2018-04-10T21:58:18.032Z,7.45
2018-04-10T21:58:18.083Z,7.43
2018-04-10T21:58:18.155Z,6.94
2018-04-10T21:58:18.236Z,7.62
2018-04-10T21:58:18.333Z,5.64
2018-04-10T21:58:18.367Z,7.88
2018-04-10T21:58:18.465Z,6.08
2018-04-10T21:58:18.501Z,6.93
2018-04-10T21:58:18.572Z,7.24
2018-04-10T21:58:18.638Z,6.47
2018-04-10T21:58:18.680Z,6.41
2018-04-10T21:58:18.817Z,7.86
2018-04-10T21:58:18.842Z,6.03
2018-04-10T21:58:18.954Z,6.74
2018-04-10T21:58:18.988Z,6.96
2018-04-10T21:58:19.078Z,6.65
2018-04-10T21:58:19.125Z,7.15
2018-04-10T21:58:19.204Z,6.65
2018-04-10T21:58:19.225Z,5.87
2018-04-10T21:58:19.341Z,7.04
2018-04-10T21:58:19.376Z,6.06
2018-04-10T21:58:19.469Z,5.91
2018-04-10T21:58:19.526Z,5.99
2018-04-10T21:58:19.636Z,7.23
2018-04-10T21:58:19.724Z,6.79
2018-04-10T21:58:19.760Z,8.99
2018-04-10T21:58:19.830Z,6.12
2018-04-10T21:58:19.879Z,6.58
2018-04-10T21:58:19.959Z,8.25
2018-04-10T21:58:20.038Z,8.49
2018-04-10T21:58:20.094Z,7.52
2018-04-10T21:58:20.161Z,8.75
2018-04-10T21:58:20.266Z,8.2
2018-04-10T21:58:20.288Z,7.79
2018-04-10T21:58:20.380Z,8.03
2018-04-10T21:58:20.496Z,7.37
2018-04-10T21:58:20.577Z,7.17
2018-04-10T21:58:20.607Z,8.89
2018-04-10T21:58:20.673Z,7.02
2018-04-10T21:58:20.768Z,8.58
2018-04-10T21:58:20.788Z,12.48
2018-04-10T21:58:20.937Z,16.49
2018-04-10T21:58:20.949Z,19
2018-04-10T21:58:21.012Z,16.01
2018-04-10T21:58:21.112Z,18.99
2018-04-10T21:58:21.175Z,12.84
2018-04-10T21:58:21.196Z,7.59
2018-04-10T21:58:21.319Z,9.1
2018-04-10T21:58:21.412Z,5.46
2018-04-10T21:58:21.498Z,6.59
2018-04-10T21:58:21.533Z,5.96
2018-04-10T21:58:21.568Z,7.95
2018-04-10T21:58:21.652Z,6.08
2018-04-10T21:58:21.737Z,6.84
2018-04-10T21:58:21.776Z,7.69
2018-04-10T21:58:21.831Z,9.06
2018-04-10T21:58:21.875Z,8.73
2018-04-10T21:58:21.959Z,10.26
2018-04-10T21:58:21.998Z,6.06
2018-04-10T21:58:22.131Z,9.22
2018-04-10T21:58:22.208Z,8.8
2018-04-10T21:58:22.229Z,7.88
2018-04-10T21:58:22.306Z,8.07
2018-04-10T21:58:22.396Z,9.69
2018-04-10T21:58:22.461Z,10
2018-04-10T21:58:22.495Z,8.68
2018-04-10T21:58:22.553Z,10.87
2018-04-10T21:58:22.607Z,11.17
2018-04-10T21:58:22.679Z,10.11
2018-04-10T21:58:22.759Z,10.8
2018-04-10T21:58:22.883Z,8.55
2018-04-10T21:58:22.898Z,10.26
2018-04-10T21:58:23.014Z,9.3
2018-04-10T21:58:23.032Z,10.11
2018-04-10T21:58:23.120Z,8.79
2018-04-10T21:58:23.184Z,9.73
2018-04-10T21:58:23.239Z,11.54
2018-04-10T21:58:23.300Z,11.36
2018-04-10T21:58:23.387Z,9.21
2018-04-10T21:58:23.433Z,11.27
2018-04-10T21:58:23.522Z,9.8
2018-04-10T21:58:23.614Z,9.69
2018-04-10T21:58:23.733Z,9.35
2018-04-10T21:58:23.776Z,10.94
2018-04-10T21:58:23.928Z,13.48
2018-04-10T21:58:23.942Z,13.53
2018-04-10T21:58:24.028Z,12.34
2018-04-10T21:58:24.136Z,10.4
2018-04-10T21:58:24.176Z,6.06
2018-04-10T21:58:24.243Z,7.39
2018-04-10T21:58:24.296Z,7.57
2018-04-10T21:58:24.344Z,7.73
2018-04-10T21:58:24.445Z,4.66
2018-04-10T21:58:24.520Z,4.94
2018-04-10T21:58:24.588Z,5.52
2018-04-10T21:58:24.658Z,4.08
2018-04-10T21:58:24.756Z,6.08
2018-04-10T21:58:24.812Z,5.6
2018-04-10T21:58:24.874Z,5.06
2018-04-10T21:58:24.967Z,5.65
2018-04-10T21:58:24.986Z,4.91
2018-04-10T21:58:25.054Z,4.78
2018-04-10T21:58:25.169Z,4.85
2018-04-10T21:58:25.236Z,5.05
2018-04-10T21:58:25.281Z,6.23
2018-04-10T21:58:25.347Z,5.02
2018-04-10T21:58:25.475Z,4.25
2018-04-10T21:58:25.499Z,4.87
2018-04-10T21:58:25.652Z,8.3
2018-04-10T21:58:25.775Z,9.15
2018-04-10T21:58:25.856Z,4.45
2018-04-10T21:58:25.906Z,3.79
2018-04-10T21:58:25.954Z,4.54
2018-04-10T21:58:26.021Z,4.9
2018-04-10T21:58:26.131Z,6.84
2018-04-10T21:58:26.204Z,8.77
2018-04-10T21:58:26.232Z,8.99
2018-04-10T21:58:26.285Z,8.83
2018-04-10T21:58:26.393Z,7.18
2018-04-10T21:58:26.417Z,7.03
2018-04-10T21:58:26.529Z,7.83
2018-04-10T21:58:26.603Z,3.84
2018-04-10T21:58:26.678Z,5
2018-04-10T21:58:26.797Z,4.22
2018-04-10T21:58:26.873Z,3.72
2018-04-10T21:58:26.908Z,3.96
2018-04-10T21:58:27.003Z,4.18
2018-04-10T21:58:27.104Z,4.06
2018-04-10T21:58:27.202Z,5.3
2018-04-10T21:58:27.230Z,4.06
2018-04-10T21:58:27.298Z,4.42
2018-04-10T21:58:27.454Z,4.61
2018-04-10T21:58:27.480Z,4.88
2018-04-10T21:58:27.551Z,4.69
2018-04-10T21:58:27.727Z,5.08
2018-04-10T21:58:27.767Z,3.46
2018-04-10T21:58:27.829Z,4.9
2018-04-10T21:58:27.879Z,4.15
2018-04-10T21:58:27.968Z,4.32
2018-04-10T21:58:28.039Z,5.16
2018-04-10T21:58:28.124Z,4.41
2018-04-10T21:58:28.212Z,3.81
2018-04-10T21:58:28.293Z,4.77
2018-04-10T21:58:28.359Z,4.59
2018-04-10T21:58:28.442Z,3.97
2018-04-10T21:58:28.510Z,3.92
2018-04-10T21:58:28.545Z,3.8
2018-04-10T21:58:28.606Z,4.8
2018-04-10T21:58:28.711Z,4.21
2018-04-10T21:58:28.737Z,5.66
2018-04-10T21:58:28.841Z,4.52
2018-04-10T21:58:28.908Z,4.86
2018-04-10T21:58:28.968Z,4.98
2018-04-10T21:58:29.076Z,10.88
2018-04-10T21:58:29.124Z,5.69
2018-04-10T21:58:29.239Z,4.13
2018-04-10T21:58:29.305Z,4.45
2018-04-10T21:58:29.353Z,4.92
2018-04-10T21:58:29.436Z,6.18
2018-04-10T21:58:29.486Z,5.71
2018-04-10T21:58:29.570Z,7.92
2018-04-10T21:58:29.648Z,3.89
2018-04-10T21:58:29.676Z,3.82
2018-04-10T21:58:29.761Z,4.28
2018-04-10T21:58:29.867Z,3.89
2018-04-10T21:58:29.963Z,3.65
2018-04-10T21:58:30.051Z,3.29
2018-04-10T21:58:30.210Z,3.23
2018-04-10T21:58:30.272Z,3.71
2018-04-10T21:58:30.384Z,4.72
2018-04-10T21:58:30.503Z,5.41
2018-04-10T21:58:30.546Z,4.15
2018-04-10T21:58:30.662Z,4.26
2018-04-10T21:58:30.698Z,4.74
2018-04-10T21:58:30.770Z,5.16
2018-04-10T21:58:30.850Z,5.7
2018-04-10T21:58:30.898Z,12.8
2018-04-10T21:58:30.973Z,36.86
2018-04-10T21:58:31.020Z,16.15
2018-04-10T21:58:31.088Z,4.38
2018-04-10T21:58:31.200Z,3.8
2018-04-10T21:58:31.314Z,5.47
2018-04-10T21:58:31.361Z,6.28
2018-04-10T21:58:31.435Z,5.28
2018-04-10T21:58:31.499Z,5.79
2018-04-10T21:58:31.579Z,8.11
2018-04-10T21:58:31.643Z,6.12
2018-04-10T21:58:31.663Z,7.5
2018-04-10T21:58:31.750Z,6.32
2018-04-10T21:58:31.851Z,5.63
2018-04-10T21:58:31.887Z,5.1
2018-04-10T21:58:31.943Z,6.34
2018-04-10T21:58:32.085Z,5.82
2018-04-10T21:58:32.139Z,7.52
2018-04-10T21:58:32.211Z,6.79
2018-04-10T21:58:32.293Z,7.59
2018-04-10T21:58:32.400Z,7.79
2018-04-10T21:58:32.424Z,8.03
2018-04-10T21:58:32.454Z,11.05
2018-04-10T21:58:32.556Z,11.34
2018-04-10T21:58:32.621Z,5.12
2018-04-10T21:58:32.720Z,6.24
2018-04-10T21:58:32.750Z,7.68
2018-04-10T21:58:32.856Z,6.41
2018-04-10T21:58:32.911Z,7.67
2018-04-10T21:58:32.990Z,6.81
2018-04-10T21:58:33.060Z,6.31
2018-04-10T21:58:33.103Z,6.09
2018-04-10T21:58:33.208Z,5.43
2018-04-10T21:58:33.259Z,6.76
2018-04-10T21:58:33.306Z,6.26
2018-04-10T21:58:33.417Z,8.31
2018-04-10T21:58:33.421Z,6.82
2018-04-10T21:58:33.521Z,8.24
2018-04-10T21:58:33.589Z,8.4
2018-04-10T21:58:33.657Z,7.93
2018-04-10T21:58:33.762Z,6.98
2018-04-10T21:58:33.826Z,7.18
2018-04-10T21:58:33.855Z,7.51
2018-04-10T21:58:33.928Z,7.53
2018-04-10T21:58:34.037Z,7.43
2018-04-10T21:58:34.072Z,7.3
2018-04-10T21:58:34.173Z,8.54
2018-04-10T21:58:34.253Z,7.18
2018-04-10T21:58:34.313Z,9.01
2018-04-10T21:58:34.435Z,8.93
2018-04-10T21:58:34.502Z,10.73
2018-04-10T21:58:34.554Z,9.2
2018-04-10T21:58:34.647Z,9.42
2018-04-10T21:58:34.659Z,10.63
2018-04-10T21:58:34.761Z,9.58
2018-04-10T21:58:34.808Z,8.88
2018-04-10T21:58:34.888Z,10.14
2018-04-10T21:58:34.905Z,7.95
2018-04-10T21:58:34.998Z,10.18
2018-04-10T21:58:35.037Z,9.17
2018-04-10T21:58:35.112Z,8.48
2018-04-10T21:58:35.161Z,8.95
2018-04-10T21:58:35.297Z,9.81
2018-04-10T21:58:35.336Z,9.49
2018-04-10T21:58:35.442Z,9.14
2018-04-10T21:58:35.491Z,11.16
2018-04-10T21:58:35.527Z,10.89
2018-04-10T21:58:35.613Z,9.26
2018-04-10T21:58:35.678Z,8.12
2018-04-10T21:58:35.708Z,8.77
2018-04-10T21:58:35.820Z,8.47
2018-04-10T21:58:35.873Z,8.61
2018-04-10T21:58:35.991Z,4.76
2018-04-10T21:58:36.035Z,12.61
2018-04-10T21:58:36.164Z,9.53
2018-04-10T21:58:36.223Z,8.53
2018-04-10T21:58:36.247Z,11.1
2018-04-10T21:58:36.350Z,7.89
2018-04-10T21:58:36.403Z,7.82
2018-04-10T21:58:36.483Z,6.14
2018-04-10T21:58:36.525Z,6.74
2018-04-10T21:58:36.616Z,8.65
2018-04-10T21:58:36.697Z,8.15
2018-04-10T21:58:36.767Z,7.02
2018-04-10T21:58:36.843Z,6.97
2018-04-10T21:58:36.906Z,8.35
2018-04-10T21:58:37.000Z,7.32
2018-04-10T21:58:37.040Z,8.02
2018-04-10T21:58:37.084Z,7.83
2018-04-10T21:58:37.177Z,6.62
2018-04-10T21:58:37.255Z,7.19
2018-04-10T21:58:37.293Z,5.95
2018-04-10T21:58:37.348Z,5.44
2018-04-10T21:58:37.431Z,5.2
2018-04-10T21:58:37.514Z,5.57
2018-04-10T21:58:37.572Z,5.05
2018-04-10T21:58:37.605Z,7.04
2018-04-10T21:58:37.763Z,6.01
2018-04-10T21:58:37.778Z,6.07
2018-04-10T21:58:37.849Z,6.65
2018-04-10T21:58:37.908Z,6.28
2018-04-10T21:58:38.012Z,7.1
2018-04-10T21:58:38.070Z,6.63
2018-04-10T21:58:38.097Z,6.24
2018-04-10T21:58:38.191Z,7.86
2018-04-10T21:58:38.217Z,7.15
2018-04-10T21:58:38.294Z,9.95
2018-04-10T21:58:38.360Z,6.2
2018-04-10T21:58:38.431Z,7.48
2018-04-10T21:58:38.549Z,5.8
2018-04-10T21:58:38.618Z,6.36
2018-04-10T21:58:38.654Z,5.36
2018-04-10T21:58:38.768Z,5.65
2018-04-10T21:58:38.830Z,5.46
2018-04-10T21:58:38.920Z,6.29
2018-04-10T21:58:38.936Z,5.12
2018-04-10T21:58:39.011Z,6.48
2018-04-10T21:58:39.099Z,5.44
2018-04-10T21:58:39.173Z,6.02
2018-04-10T21:58:39.240Z,6.6
2018-04-10T21:58:39.319Z,5.9
2018-04-10T21:58:39.434Z,6.02
2018-04-10T21:58:39.494Z,6.14
2018-04-10T21:58:39.539Z,7.58
2018-04-10T21:58:39.613Z,6.7
2018-04-10T21:58:39.655Z,7.54
2018-04-10T21:58:39.741Z,6.44
2018-04-10T21:58:39.819Z,7.03
2018-04-10T21:58:39.904Z,6.65
2018-04-10T21:58:39.937Z,6.67
2018-04-10T21:58:39.972Z,5.67
2018-04-10T21:58:40.067Z,6.88
2018-04-10T21:58:40.178Z,7.5
2018-04-10T21:58:40.254Z,7.7
2018-04-10T21:58:40.317Z,8.24
2018-04-10T21:58:40.388Z,7.83
2018-04-10T21:58:40.445Z,10.09
2018-04-10T21:58:40.528Z,8.26
2018-04-10T21:58:40.550Z,8.6
2018-04-10T21:58:40.659Z,8.77
2018-04-10T21:58:40.717Z,8.23
2018-04-10T21:58:40.796Z,9.08
2018-04-10T21:58:40.964Z,8.05
2018-04-10T21:58:41.116Z,8.9
2018-04-10T21:58:41.234Z,6.92
2018-04-10T21:58:41.284Z,9.09
2018-04-10T21:58:41.341Z,5.92
2018-04-10T21:58:41.399Z,6.31
2018-04-10T21:58:41.484Z,6.49
2018-04-10T21:58:41.553Z,6.33
2018-04-10T21:58:41.639Z,5.46
2018-04-10T21:58:41.682Z,6.96
2018-04-10T21:58:41.775Z,9.17
2018-04-10T21:58:41.837Z,8.12
2018-04-10T21:58:41.886Z,6.09
2018-04-10T21:58:42.022Z,5.41
2018-04-10T21:58:42.071Z,4.69
2018-04-10T21:58:42.147Z,3.72
2018-04-10T21:58:42.212Z,5.38
2018-04-10T21:58:42.233Z,4.67
2018-04-10T21:58:42.347Z,3.96
2018-04-10T21:58:42.458Z,5.21
2018-04-10T21:58:42.511Z,5.23
2018-04-10T21:58:42.593Z,6.2
2018-04-10T21:58:42.655Z,5.44
2018-04-10T21:58:42.733Z,4.44
2018-04-10T21:58:42.775Z,3.69
2018-04-10T21:58:42.836Z,4.02
2018-04-10T21:58:42.919Z,3.57
2018-04-10T21:58:43.018Z,4.13
2018-04-10T21:58:43.095Z,4.45
2018-04-10T21:58:43.157Z,3.49
2018-04-10T21:58:43.194Z,5.7
2018-04-10T21:58:43.281Z,6.32
2018-04-10T21:58:43.332Z,3.33
2018-04-10T21:58:43.429Z,4.71
2018-04-10T21:58:43.467Z,5.02
2018-04-10T21:58:43.547Z,3.2
2018-04-10T21:58:43.632Z,3.34
2018-04-10T21:58:43.721Z,3.59
2018-04-10T21:58:43.765Z,3.94
2018-04-10T21:58:43.822Z,4.89
2018-04-10T21:58:43.923Z,7.23
2018-04-10T21:58:43.987Z,7.05
2018-04-10T21:58:44.034Z,6.52
2018-04-10T21:58:44.069Z,4.98
2018-04-10T21:58:44.169Z,6.18
2018-04-10T21:58:44.283Z,4.52
2018-04-10T21:58:44.291Z,5.8
2018-04-10T21:58:44.446Z,10.54
2018-04-10T21:58:44.478Z,6.25
2018-04-10T21:58:44.571Z,6.79
2018-04-10T21:58:44.689Z,5.53
2018-04-10T21:58:44.824Z,6.3
2018-04-10T21:58:44.920Z,5.48
2018-04-10T21:58:45.032Z,5.09
2018-04-10T21:58:45.148Z,9.53
2018-04-10T21:58:45.182Z,5.64
2018-04-10T21:58:45.242Z,7.48
2018-04-10T21:58:45.367Z,5.86
2018-04-10T21:58:45.384Z,7.38
2018-04-10T21:58:45.454Z,5.15
2018-04-10T21:58:45.571Z,5.84
2018-04-10T21:58:45.600Z,5.75
2018-04-10T21:58:45.676Z,8.25
2018-04-10T21:58:45.757Z,6.34
2018-04-10T21:58:45.799Z,7.79
2018-04-10T21:58:45.875Z,6.73
2018-04-10T21:58:45.972Z,6.31
2018-04-10T21:58:46.025Z,5.55
2018-04-10T21:58:46.107Z,5.29
2018-04-10T21:58:46.179Z,4.58
2018-04-10T21:58:46.225Z,4.72
2018-04-10T21:58:46.315Z,4.97
2018-04-10T21:58:46.392Z,6.48
2018-04-10T21:58:46.444Z,6.05
2018-04-10T21:58:46.524Z,6.43
2018-04-10T21:58:46.546Z,6.48
2018-04-10T21:58:46.690Z,7.64
2018-04-10T21:58:46.710Z,6.68
2018-04-10T21:58:46.811Z,7.8
2018-04-10T21:58:46.899Z,5.34
2018-04-10T21:58:46.953Z,7.23
2018-04-10T21:58:47.011Z,8.27
2018-04-10T21:58:47.072Z,7.79
2018-04-10T21:58:47.176Z,8.55
2018-04-10T21:58:47.238Z,9.74
2018-04-10T21:58:47.266Z,8.64
2018-04-10T21:58:47.365Z,9.05
2018-04-10T21:58:47.436Z,8.63
2018-04-10T21:58:47.478Z,8.65
2018-04-10T21:58:47.571Z,7.74
2018-04-10T21:58:47.688Z,10.93
2018-04-10T21:58:47.730Z,9.42
2018-04-10T21:58:47.792Z,10.91
2018-04-10T21:58:47.883Z,8.84
2018-04-10T21:58:47.938Z,11.35
2018-04-10T21:58:47.992Z,8.94
2018-04-10T21:58:48.098Z,5.79
2018-04-10T21:58:48.145Z,5.44
2018-04-10T21:58:48.191Z,5.47
2018-04-10T21:58:48.292Z,6.02
2018-04-10T21:58:48.355Z,3.99
2018-04-10T21:58:48.445Z,4.6
2018-04-10T21:58:48.529Z,5.97
2018-04-10T21:58:48.602Z,7.05
2018-04-10T21:58:48.619Z,5.78
2018-04-10T21:58:48.696Z,5.39
2018-04-10T21:58:48.799Z,6.52
2018-04-10T21:58:48.835Z,5.9
2018-04-10T21:58:48.900Z,5.22
2018-04-10T21:58:49.003Z,4.9
2018-04-10T21:58:49.087Z,6.11
2018-04-10T21:58:49.171Z,5.48
2018-04-10T21:58:49.226Z,5.39
2018-04-10T21:58:49.324Z,4.99
2018-04-10T21:58:49.407Z,4.95
2018-04-10T21:58:49.455Z,7.29
2018-04-10T21:58:49.591Z,7.99
2018-04-10T21:58:49.655Z,6.71
2018-04-10T21:58:49.684Z,10.57
2018-04-10T21:58:49.749Z,10.2
2018-04-10T21:58:49.871Z,8.86
2018-04-10T21:58:49.917Z,6.92
2018-04-10T21:58:50.036Z,11.17
2018-04-10T21:58:50.152Z,6.94
2018-04-10T21:58:50.197Z,8.11
2018-04-10T21:58:50.300Z,7.95
2018-04-10T21:58:50.372Z,11.25
2018-04-10T21:58:50.433Z,7.93
2018-04-10T21:58:50.486Z,7.79
2018-04-10T21:58:50.571Z,5.19
2018-04-10T21:58:50.638Z,5.89
2018-04-10T21:58:50.702Z,6.56
2018-04-10T21:58:50.763Z,6.58
2018-04-10T21:58:50.829Z,5.66
2018-04-10T21:58:50.952Z,6.97
2018-04-10T21:58:51.025Z,7.17
2018-04-10T21:58:51.034Z,8.54
2018-04-10T21:58:51.113Z,10.82
2018-04-10T21:58:51.207Z,5.98
2018-04-10T21:58:51.287Z,5.43
2018-04-10T21:58:51.327Z,5.23
2018-04-10T21:58:51.412Z,6.36
2018-04-10T21:58:51.504Z,8.82
2018-04-10T21:58:51.538Z,9.64
2018-04-10T21:58:51.605Z,8.53
2018-04-10T21:58:51.709Z,7.81
2018-04-10T21:58:51.813Z,8.12
2018-04-10T21:58:51.863Z,7.61
2018-04-10T21:58:51.957Z,5.72
2018-04-10T21:58:52.009Z,6.6
2018-04-10T21:58:52.070Z,8.51
2018-04-10T21:58:52.152Z,8.54
2018-04-10T21:58:52.189Z,9.12
2018-04-10T21:58:52.222Z,11.28
2018-04-10T21:58:52.345Z,13.01
2018-04-10T21:58:52.380Z,14.42
2018-04-10T21:58:52.451Z,13.72
2018-04-10T21:58:52.575Z,13.35
2018-04-10T21:58:52.674Z,10.82
2018-04-10T21:58:52.765Z,11.43
2018-04-10T21:58:52.841Z,11.74
2018-04-10T21:58:52.924Z,14.04
2018-04-10T21:58:52.966Z,13.37
2018-04-10T21:58:53.050Z,12.6
2018-04-10T21:58:53.066Z,12.95
2018-04-10T21:58:53.194Z,15.18
2018-04-10T21:58:53.257Z,9.97
2018-04-10T21:58:53.324Z,11.03
2018-04-10T21:58:53.365Z,8.79
2018-04-10T21:58:53.450Z,9.45
2018-04-10T21:58:53.522Z,9.19
2018-04-10T21:58:53.587Z,9.3
2018-04-10T21:58:53.708Z,10.73
2018-04-10T21:58:53.739Z,7.2
2018-04-10T21:58:53.819Z,9.3
2018-04-10T21:58:53.892Z,11.16
2018-04-10T21:58:53.970Z,11.27
2018-04-10T21:58:54.033Z,8.44
2018-04-10T21:58:54.083Z,11.77
2018-04-10T21:58:54.153Z,9.68
2018-04-10T21:58:54.213Z,9.56
2018-04-10T21:58:54.298Z,8.68
2018-04-10T21:58:54.413Z,10.76
2018-04-10T21:58:54.415Z,10.48
2018-04-10T21:58:54.491Z,10.81
2018-04-10T21:58:54.545Z,7.38
2018-04-10T21:58:54.645Z,10.68
2018-04-10T21:58:54.692Z,13.18
2018-04-10T21:58:54.765Z,8.97
2018-04-10T21:58:54.824Z,11.36
2018-04-10T21:58:54.899Z,11.1
2018-04-10T21:58:54.948Z,10.3
2018-04-10T21:58:55.012Z,12.36
2018-04-10T21:58:55.104Z,12.37
2018-04-10T21:58:55.173Z,12.45
2018-04-10T21:58:55.238Z,11.43
2018-04-10T21:58:55.329Z,11.85
2018-04-10T21:58:55.392Z,12.5
2018-04-10T21:58:55.442Z,13.6
2018-04-10T21:58:55.505Z,13.21
2018-04-10T21:58:55.596Z,15.18
2018-04-10T21:58:55.672Z,13.13
2018-04-10T21:58:55.694Z,13.73
2018-04-10T21:58:55.771Z,15.39
2018-04-10T21:58:55.892Z,16.1
2018-04-10T21:58:55.941Z,13.7
2018-04-10T21:58:56.013Z,14.22
2018-04-10T21:58:56.111Z,17.08
2018-04-10T21:58:56.136Z,11.61
2018-04-10T21:58:56.191Z,15.31
2018-04-10T21:58:56.294Z,15.45
2018-04-10T21:58:56.317Z,15.36
2018-04-10T21:58:56.405Z,11.28
2018-04-10T21:58:56.448Z,13.79
2018-04-10T21:58:56.524Z,14.44
2018-04-10T21:58:56.582Z,14.25
2018-04-10T21:58:56.640Z,10.36
2018-04-10T21:58:56.778Z,11.21
2018-04-10T21:58:56.820Z,14
2018-04-10T21:58:56.854Z,13.89
2018-04-10T21:58:56.950Z,13.18
2018-04-10T21:58:56.999Z,11.22
2018-04-10T21:58:57.083Z,12.34
2018-04-10T21:58:57.155Z,14.43
2018-04-10T21:58:57.260Z,12.95
2018-04-10T21:58:57.267Z,10.86
2018-04-10T21:58:57.341Z,8.13
2018-04-10T21:58:57.395Z,8.9
2018-04-10T21:58:57.488Z,7.71